createdAt,value
2022-08-05T00:00:23.314Z,100598.44
2022-08-05T00:02:55.020Z,100604.16
2022-08-05T00:06:02.110Z,100602.28
2022-08-05T00:08:34.268Z,100588.75
2022-08-05T00:11:03.200Z,100583.78
2022-08-05T00:13:39.575Z,100583.16
2022-08-05T00:16:10.799Z,100580.19
2022-08-05T00:18:44.281Z,100580.59
2022-08-05T00:21:14.509Z,100583.75
2022-08-05T00:23:53.456Z,100581.88
2022-08-05T00:26:32.964Z,100583.34
2022-08-05T00:29:00.888Z,100581.66
2022-08-05T00:31:53.027Z,100583.16
2022-08-05T00:34:56.659Z,100581.56
2022-08-05T00:37:09.860Z,100587.78
2022-08-05T00:39:44.392Z,100590.50
2022-08-05T00:42:33.381Z,100597.53
2022-08-05T00:45:01.402Z,100600.06
2022-08-05T00:47:53.097Z,100590.97
2022-08-05T00:50:20.982Z,100585.47
2022-08-05T00:52:49.193Z,100594.94
2022-08-05T00:55:17.276Z,100603.00
2022-08-05T00:57:58.063Z,100644.44
2022-08-05T01:00:28.473Z,100617.25
2022-08-05T01:02:56.927Z,100619.13
2022-08-05T01:05:27.494Z,100628.81
2022-08-05T01:08:41.365Z,100631.28
2022-08-05T01:10:52.790Z,100637.03
2022-08-05T01:13:57.779Z,100634.66
2022-08-05T01:16:30.145Z,100645.41
2022-08-05T01:19:07.285Z,100653.41
2022-08-05T01:22:03.340Z,100640.66
2022-08-05T01:24:54.790Z,100630.13
2022-08-05T01:27:55.098Z,100620.47
2022-08-05T01:30:34.470Z,100641.63
2022-08-05T01:33:08.966Z,100652.69
2022-08-05T01:35:51.966Z,100657.69
2022-08-05T01:38:27.051Z,100631.72
2022-08-05T01:41:01.351Z,100641.59
2022-08-05T01:43:34.445Z,100644.81
2022-08-05T01:46:07.543Z,100639.19
2022-08-05T01:48:49.629Z,100647.22
2022-08-05T01:51:19.361Z,100650.31
2022-08-05T01:53:57.545Z,100637.59
2022-08-05T01:58:09.880Z,100633.28
2022-08-05T01:59:27.591Z,100645.59
2022-08-05T02:01:58.855Z,100641.78
2022-08-05T02:04:29.942Z,100627.84
2022-08-05T02:06:59.817Z,100622.59
2022-08-05T02:09:31.564Z,100624.09
2022-08-05T02:12:10.000Z,100628.03
2022-08-05T02:14:48.728Z,100627.41
2022-08-05T02:18:28.019Z,100623.06
2022-08-05T02:20:23.147Z,100630.69
2022-08-05T02:23:00.124Z,100625.03
2022-08-05T02:25:50.140Z,100629.59
2022-08-05T02:28:28.961Z,100633.06
2022-08-05T02:31:07.555Z,100627.13
2022-08-05T02:33:43.118Z,100645.00
2022-08-05T02:36:17.297Z,100636.69
2022-08-05T02:38:53.243Z,100643.16
2022-08-05T02:41:28.297Z,100647.75
2022-08-05T02:44:12.374Z,100638.91
2022-08-05T02:46:58.375Z,100641.38
2022-08-05T02:49:36.723Z,100628.19
2022-08-05T02:52:10.020Z,100633.31
2022-08-05T02:54:51.147Z,100641.56
2022-08-05T02:58:20.088Z,100641.69
2022-08-05T03:00:14.268Z,100641.16
2022-08-05T03:02:46.064Z,100641.53
2022-08-05T03:05:16.506Z,100634.13
2022-08-05T03:08:06.779Z,100631.75
2022-08-05T03:10:33.140Z,100625.84
2022-08-05T03:15:28.920Z,100615.84
2022-08-05T03:17:59.332Z,100618.84
2022-08-05T03:20:27.434Z,100621.16
2022-08-05T03:22:58.080Z,100621.22
2022-08-05T03:25:33.878Z,100620.47
2022-08-05T03:28:18.872Z,100611.28
2022-08-05T03:30:49.507Z,100608.84
2022-08-05T03:33:20.174Z,100605.88
2022-08-05T03:35:51.774Z,100605.72
2022-08-05T03:38:32.766Z,100602.56
2022-08-05T03:41:08.194Z,100609.31
2022-08-05T03:44:08.996Z,100610.25
2022-08-05T03:46:29.835Z,100623.06
2022-08-05T03:48:59.813Z,100619.22
2022-08-05T03:52:38.979Z,100621.34
2022-08-05T03:55:51.989Z,100626.00
2022-08-05T03:57:41.801Z,100635.16
2022-08-05T04:00:16.275Z,100634.13
2022-08-05T04:02:58.173Z,100635.38
2022-08-05T04:05:34.004Z,100636.91
2022-08-05T04:08:05.860Z,100631.00
2022-08-05T04:10:52.849Z,100617.63
2022-08-05T04:13:21.632Z,100615.09
2022-08-05T04:16:03.331Z,100627.28
2022-08-05T04:18:34.537Z,100634.22
2022-08-05T04:21:05.744Z,100633.66
2022-08-05T04:24:05.597Z,100640.59
2022-08-05T04:26:23.693Z,100642.13
2022-08-05T04:28:52.108Z,100645.66
2022-08-05T04:31:20.352Z,100652.72
2022-08-05T04:34:19.378Z,100651.34
2022-08-05T04:36:45.550Z,100655.47
2022-08-05T04:39:14.350Z,100651.81
2022-08-05T04:41:42.300Z,100645.19
2022-08-05T04:44:12.185Z,100636.13
2022-08-05T04:46:40.179Z,100641.88
2022-08-05T04:49:12.356Z,100631.06
2022-08-05T04:51:44.595Z,100631.56
2022-08-05T04:54:14.523Z,100628.19
2022-08-05T04:56:42.450Z,100627.72
2022-08-05T04:59:24.159Z,100622.41
2022-08-05T05:02:35.492Z,100624.81
2022-08-05T05:04:49.919Z,100630.88
2022-08-05T05:07:29.261Z,100642.72
2022-08-05T05:09:57.629Z,100639.75
2022-08-05T05:12:27.433Z,100641.81
2022-08-05T05:14:55.624Z,100650.63
2022-08-05T05:17:24.863Z,100656.72
2022-08-05T05:20:14.218Z,100662.41
2022-08-05T05:22:44.010Z,100663.66
2022-08-05T05:25:16.445Z,100681.63
2022-08-05T05:27:53.659Z,100699.41
2022-08-05T05:30:30.841Z,100717.72
2022-08-05T05:33:16.455Z,100728.09
2022-08-05T05:35:46.934Z,100732.88
2022-08-05T05:38:22.383Z,100724.03
2022-08-05T05:40:56.088Z,100714.09
2022-08-05T05:43:57.396Z,100711.88
2022-08-05T05:46:15.926Z,100718.00
2022-08-05T05:48:48.147Z,100715.78
2022-08-05T05:51:21.970Z,100715.97
2022-08-05T05:53:57.345Z,100723.81
2022-08-05T05:56:33.185Z,100749.47
2022-08-05T05:59:04.054Z,100772.59
2022-08-05T06:01:37.641Z,100789.69
2022-08-05T06:04:08.335Z,100786.84
2022-08-05T06:06:41.851Z,100787.97
2022-08-05T06:09:17.280Z,100779.25
2022-08-05T06:11:59.325Z,100783.69
2022-08-05T06:14:29.450Z,100784.75
2022-08-05T06:16:57.901Z,100789.69
2022-08-05T06:19:35.338Z,100802.03
2022-08-05T06:22:03.763Z,100804.53
2022-08-05T06:24:33.072Z,100815.91
2022-08-05T06:27:03.873Z,100816.53
2022-08-05T06:29:46.813Z,100817.63
2022-08-05T06:32:25.037Z,100806.53
2022-08-05T06:34:56.219Z,100807.72
2022-08-05T06:37:39.423Z,100788.22
2022-08-05T06:40:18.304Z,100788.84
2022-08-05T06:42:51.960Z,100795.25
2022-08-05T06:45:44.077Z,100780.00
2022-08-05T06:48:36.593Z,100796.19
2022-08-05T06:50:58.347Z,100790.72
2022-08-05T06:53:29.263Z,100786.34
2022-08-05T06:55:59.604Z,100781.22
2022-08-05T06:58:35.257Z,100785.06
2022-08-05T07:01:07.018Z,100775.69
2022-08-05T07:03:35.689Z,100775.63
2022-08-05T07:06:05.774Z,100780.78
2022-08-05T07:08:47.802Z,100799.66
2022-08-05T07:11:21.934Z,100806.94
2022-08-05T07:14:07.485Z,100802.88
2022-08-05T07:18:02.210Z,100806.78
2022-08-05T07:22:35.261Z,100844.66
2022-08-05T07:25:23.301Z,100837.72
2022-08-05T07:28:02.709Z,100854.34
2022-08-05T07:30:39.109Z,100841.63
2022-08-05T07:33:16.190Z,100840.34
2022-08-05T07:36:03.457Z,100823.91
2022-08-05T07:38:42.901Z,100819.75
2022-08-05T07:42:08.761Z,100827.25
2022-08-05T07:44:14.304Z,100818.00
2022-08-05T07:46:48.453Z,100828.09
2022-08-05T07:49:18.245Z,100831.38
2022-08-05T07:51:53.560Z,100841.75
2022-08-05T07:54:31.555Z,100847.56
2022-08-05T07:57:41.711Z,100838.63
2022-08-05T07:59:53.592Z,100828.31
2022-08-05T08:02:31.347Z,100816.78
2022-08-05T08:05:14.498Z,100810.38
2022-08-05T08:08:00.146Z,100820.75
2022-08-05T08:10:29.248Z,100822.50
2022-08-05T08:12:58.535Z,100817.22
2022-08-05T08:16:33.830Z,100806.28
2022-08-05T08:18:16.053Z,100783.34
2022-08-05T08:21:01.804Z,100789.41
2022-08-05T08:24:01.409Z,100796.22
2022-08-05T08:26:26.789Z,100783.28
2022-08-05T08:29:02.370Z,100800.66
2022-08-05T08:31:48.791Z,100809.38
2022-08-05T08:34:16.785Z,100804.50
2022-08-05T08:36:54.686Z,100820.25
2022-08-05T08:39:24.820Z,100833.44
2022-08-05T08:41:59.746Z,100854.00
2022-08-05T08:45:20.946Z,100847.44
2022-08-05T08:48:05.481Z,100855.16
2022-08-05T08:50:33.131Z,100862.06
2022-08-05T08:53:07.932Z,100860.50
2022-08-05T08:56:05.052Z,100870.47
2022-08-05T08:58:37.632Z,100877.16
2022-08-05T09:01:16.206Z,100887.41
2022-08-05T09:03:53.074Z,100876.34
2022-08-05T09:06:28.016Z,100893.19
2022-08-05T09:09:00.342Z,100896.22
2022-08-05T09:11:51.548Z,100912.75
2022-08-05T09:14:59.127Z,100908.13
2022-08-05T09:17:09.539Z,100894.44
2022-08-05T09:20:01.473Z,100892.81
2022-08-05T09:22:31.890Z,100887.00
2022-08-05T09:25:01.903Z,100897.44
2022-08-05T09:28:04.000Z,100892.84
2022-08-05T09:30:29.872Z,100898.94
2022-08-05T09:33:04.702Z,100894.81
2022-08-05T09:35:34.271Z,100896.16
2022-08-05T09:38:16.460Z,100890.69
2022-08-05T09:40:53.519Z,100901.66
2022-08-05T09:43:41.300Z,100895.09
2022-08-05T09:46:28.348Z,100898.81
2022-08-05T09:49:07.182Z,100888.53
2022-08-05T09:51:41.254Z,100872.47
2022-08-05T09:54:11.417Z,100852.84
2022-08-05T09:56:40.413Z,100841.84
2022-08-05T09:59:19.477Z,100848.59
2022-08-05T10:01:48.069Z,100829.69
2022-08-05T10:04:38.266Z,100798.84
2022-08-05T10:07:19.937Z,100792.25
2022-08-05T10:10:14.298Z,100829.38
2022-08-05T10:12:49.872Z,100807.84
2022-08-05T10:15:25.824Z,100804.78
2022-08-05T10:18:16.687Z,100849.50
2022-08-05T10:20:48.506Z,100858.28
2022-08-05T10:23:34.630Z,100855.53
2022-08-05T10:26:14.451Z,100837.31
2022-08-05T10:28:45.107Z,100868.53
2022-08-05T10:32:48.712Z,100883.66
2022-08-05T10:34:07.047Z,100894.13
2022-08-05T10:36:37.742Z,100896.75
2022-08-05T10:39:24.840Z,100904.56
2022-08-05T10:42:14.548Z,100905.63
2022-08-05T10:44:47.596Z,100896.28
2022-08-05T10:47:26.487Z,100889.38
2022-08-05T10:50:32.473Z,100878.91
2022-08-05T10:52:58.728Z,100878.34
2022-08-05T10:55:30.369Z,100880.72
2022-08-05T10:58:09.652Z,100875.66
2022-08-05T11:00:42.270Z,100879.28
2022-08-05T11:03:24.419Z,100869.09
2022-08-05T11:06:17.655Z,100863.41
2022-08-05T11:09:32.512Z,100855.63
2022-08-05T11:12:55.051Z,100859.50
2022-08-05T11:16:01.193Z,100868.84
2022-08-05T11:18:29.753Z,100875.88
2022-08-05T11:20:59.028Z,100878.59
2022-08-05T11:24:05.570Z,100889.00
2022-08-05T11:26:32.387Z,100882.94
2022-08-05T11:29:12.984Z,100876.06
2022-08-05T11:31:58.871Z,100885.88
2022-08-05T11:34:51.210Z,100890.19
2022-08-05T11:38:28.358Z,100884.63
2022-08-05T11:41:14.196Z,100900.19
2022-08-05T11:44:04.700Z,100891.41
2022-08-05T11:46:58.286Z,100879.41
2022-08-05T11:49:26.945Z,100881.28
2022-08-05T11:51:57.301Z,100890.94
2022-08-05T11:54:32.907Z,100884.41
2022-08-05T11:57:07.718Z,100892.94
2022-08-05T11:59:52.696Z,100892.00
2022-08-05T12:02:31.451Z,100878.41
2022-08-05T12:05:06.884Z,100885.22
2022-08-05T12:08:03.226Z,100886.97
2022-08-05T12:10:43.110Z,100873.94
2022-08-05T12:13:49.084Z,100877.59
2022-08-05T12:16:15.286Z,100876.47
2022-08-05T12:18:48.675Z,100880.66
2022-08-05T12:21:24.872Z,100884.75
2022-08-05T12:24:04.509Z,100885.66
2022-08-05T12:26:34.854Z,100885.75
2022-08-05T12:29:03.350Z,100875.84
2022-08-05T12:31:43.738Z,100878.63
2022-08-05T12:34:23.727Z,100869.38
2022-08-05T12:36:56.309Z,100867.47
2022-08-05T12:39:34.370Z,100873.47
2022-08-05T12:42:14.298Z,100874.09
2022-08-05T12:44:45.842Z,100879.28
2022-08-05T12:47:28.839Z,100870.59
2022-08-05T12:50:03.112Z,100878.63
2022-08-05T12:52:38.700Z,100878.53
2022-08-05T12:55:22.676Z,100868.84
2022-08-05T12:58:49.609Z,100876.53
2022-08-05T13:02:03.019Z,100867.38
2022-08-05T13:03:41.380Z,100878.06
2022-08-05T13:06:16.472Z,100877.50
2022-08-05T13:08:51.762Z,100885.09
2022-08-05T13:12:01.952Z,100877.28
2022-08-05T13:14:24.746Z,100881.13
2022-08-05T13:17:09.829Z,100888.09
2022-08-05T13:19:52.222Z,100894.13
2022-08-05T13:22:28.380Z,100892.50
2022-08-05T13:25:05.266Z,100891.16
2022-08-05T13:27:39.021Z,100891.44
2022-08-05T13:30:35.145Z,100886.31
2022-08-05T13:33:01.598Z,100881.03
2022-08-05T13:35:42.536Z,100886.78
2022-08-05T13:38:20.419Z,100878.09
2022-08-05T13:40:56.519Z,100879.53
2022-08-05T13:43:44.220Z,100881.72
2022-08-05T13:46:13.334Z,100874.19
2022-08-05T13:48:57.634Z,100875.19
2022-08-05T13:51:36.686Z,100886.69
2022-08-05T13:54:12.972Z,100871.28
2022-08-05T13:56:45.340Z,100886.28
2022-08-05T13:59:20.237Z,100876.19
2022-08-05T14:01:56.652Z,100878.09
2022-08-05T14:04:50.565Z,100881.84
2022-08-05T14:07:56.453Z,100876.38
2022-08-05T14:10:13.995Z,100879.19
2022-08-05T14:12:48.607Z,100882.81
2022-08-05T14:16:04.634Z,100883.00
2022-08-05T14:18:14.842Z,100891.66
2022-08-05T14:20:46.931Z,100896.44
2022-08-05T14:23:24.252Z,100899.84
2022-08-05T14:25:58.604Z,100894.56
2022-08-05T14:28:28.442Z,100896.66
2022-08-05T14:30:56.586Z,100902.31
2022-08-05T14:33:24.574Z,100911.16
2022-08-05T14:35:54.518Z,100914.19
2022-08-05T14:38:31.788Z,100923.22
2022-08-05T14:41:06.077Z,100920.66
2022-08-05T14:44:02.107Z,100921.63
2022-08-05T14:46:22.987Z,100919.97
2022-08-05T14:49:03.397Z,100939.66
2022-08-05T14:51:37.411Z,100939.47
2022-08-05T14:54:28.350Z,100937.84
2022-08-05T14:56:55.814Z,100916.19
2022-08-05T14:59:23.847Z,100925.69
2022-08-05T15:01:51.695Z,100926.91
2022-08-05T15:04:23.521Z,100928.06
2022-08-05T15:06:55.295Z,100934.00
2022-08-05T15:09:51.999Z,100927.81
2022-08-05T15:12:16.720Z,100929.19
2022-08-05T15:14:50.220Z,100933.34
2022-08-05T15:17:44.534Z,100936.44
2022-08-05T15:20:18.453Z,100934.69
2022-08-05T15:22:54.005Z,100933.00
2022-08-05T15:25:52.812Z,100946.78
2022-08-05T15:28:15.511Z,100961.56
2022-08-05T15:30:45.698Z,100949.59
2022-08-05T15:34:04.916Z,100948.34
2022-08-05T15:36:06.225Z,100963.13
2022-08-05T15:38:45.076Z,100954.94
2022-08-05T15:41:21.221Z,100947.72
2022-08-05T15:43:54.981Z,100947.78
2022-08-05T15:46:24.768Z,100954.44
2022-08-05T15:49:01.200Z,100961.00
2022-08-05T15:52:12.428Z,100960.84
2022-08-05T15:54:35.118Z,100975.31
2022-08-05T15:57:07.679Z,100973.50
2022-08-05T15:59:38.106Z,100968.81
2022-08-05T16:02:09.740Z,100979.03
2022-08-05T16:04:43.075Z,100978.47
2022-08-05T16:07:13.201Z,100986.91
2022-08-05T16:09:42.148Z,100999.53
2022-08-05T16:12:12.159Z,100987.34
2022-08-05T16:14:41.823Z,100996.31
2022-08-05T16:17:10.307Z,101003.47
2022-08-05T16:20:05.350Z,101003.75
2022-08-05T16:22:27.882Z,101015.56
2022-08-05T16:25:09.400Z,101010.22
2022-08-05T16:27:47.414Z,101014.41
2022-08-05T16:30:29.291Z,101028.44
2022-08-05T16:32:57.553Z,101034.16
2022-08-05T16:35:28.389Z,101037.44
2022-08-05T16:38:15.708Z,101043.84
2022-08-05T16:40:55.346Z,101054.97
2022-08-05T16:43:30.274Z,101071.28
2022-08-05T16:46:06.371Z,101079.72
2022-08-05T16:48:39.126Z,101095.13
2022-08-05T16:51:09.235Z,101087.84
2022-08-05T16:54:05.124Z,101092.56
2022-08-05T16:56:29.983Z,101091.19
2022-08-05T16:58:59.072Z,101099.22
2022-08-05T17:01:52.934Z,101089.59
2022-08-05T17:04:18.907Z,101101.09
2022-08-05T17:06:53.346Z,101111.91
2022-08-05T17:09:21.679Z,101110.94
2022-08-05T17:11:56.054Z,101127.13
2022-08-05T17:14:36.720Z,101132.25
2022-08-05T17:17:14.607Z,101140.84
2022-08-05T17:19:46.135Z,101150.47
2022-08-05T17:22:24.498Z,101156.16
2022-08-05T17:24:57.009Z,101169.16
2022-08-05T17:27:33.731Z,101197.13
2022-08-05T17:30:04.336Z,101204.41
2022-08-05T17:32:36.981Z,101214.50
2022-08-05T17:35:05.767Z,101209.59
2022-08-05T17:37:41.425Z,101197.91
2022-08-05T17:40:17.533Z,101203.75
2022-08-05T17:42:50.951Z,101216.94
2022-08-05T17:45:22.209Z,101204.56
2022-08-05T17:47:55.419Z,101217.97
2022-08-05T17:50:28.850Z,101219.63
2022-08-05T17:53:00.743Z,101226.09
2022-08-05T17:55:37.218Z,101220.38
2022-08-05T17:58:09.907Z,101236.94
2022-08-05T18:00:45.307Z,101245.41
2022-08-05T18:06:12.106Z,101252.47
2022-08-05T18:08:52.150Z,101248.88
2022-08-05T18:11:24.759Z,101257.41
2022-08-05T18:14:03.644Z,101265.84
2022-08-05T18:16:33.016Z,101264.66
2022-08-05T18:19:03.325Z,101256.09
2022-08-05T18:22:08.447Z,101268.38
2022-08-05T18:24:19.273Z,101278.94
2022-08-05T18:26:48.961Z,101275.72
2022-08-05T18:29:17.086Z,101287.16
2022-08-05T18:31:45.140Z,101293.25
2022-08-05T18:34:14.816Z,101297.88
2022-08-05T18:36:43.511Z,101292.88
2022-08-05T18:39:41.765Z,101292.38
2022-08-05T18:42:04.696Z,101296.56
2022-08-05T18:44:51.855Z,101299.25
2022-08-05T18:47:26.665Z,101302.47
2022-08-05T18:50:13.057Z,101305.59
2022-08-05T18:52:51.318Z,101318.72
2022-08-05T18:55:21.739Z,101320.69
2022-08-05T18:57:53.142Z,101307.88
2022-08-05T19:00:27.042Z,101320.50
2022-08-05T19:02:56.997Z,101324.75
2022-08-05T19:06:12.020Z,101324.03
2022-08-05T19:08:15.272Z,101333.75
2022-08-05T19:10:43.438Z,101342.25
2022-08-05T19:13:15.934Z,101354.81
2022-08-05T19:15:59.927Z,101357.75
2022-08-05T19:18:31.332Z,101357.19
2022-08-05T19:21:00.564Z,101365.66
2022-08-05T19:24:06.562Z,101362.41
2022-08-05T19:26:19.518Z,101366.06
2022-08-05T19:28:47.339Z,101378.66
2022-08-05T19:31:17.962Z,101375.31
2022-08-05T19:33:56.711Z,101380.47
2022-08-05T19:36:29.308Z,101387.53
2022-08-05T19:39:01.028Z,101392.91
2022-08-05T19:41:58.013Z,101401.06
2022-08-05T19:44:18.787Z,101399.56
2022-08-05T19:46:47.134Z,101396.38
2022-08-05T19:49:18.136Z,101393.41
2022-08-05T19:52:08.413Z,101398.44
2022-08-05T19:54:36.949Z,101412.34
2022-08-05T19:57:09.078Z,101414.81
2022-08-05T19:59:59.520Z,101406.66
2022-08-05T20:02:30.360Z,101417.63
2022-08-05T20:05:00.199Z,101418.97
2022-08-05T20:07:47.049Z,101412.44
2022-08-05T20:10:19.427Z,101414.22
2022-08-05T20:12:50.370Z,101419.31
2022-08-05T20:15:47.796Z,101432.13
2022-08-05T20:18:33.681Z,101416.41
2022-08-05T20:20:58.006Z,101421.25
2022-08-05T20:23:40.480Z,101421.28
2022-08-05T20:26:20.708Z,101425.72
2022-08-05T20:28:51.417Z,101426.75
2022-08-05T20:31:36.750Z,101435.97
2022-08-05T20:34:06.410Z,101434.06
2022-08-05T20:36:43.568Z,101451.56
2022-08-05T20:39:16.190Z,101455.75
2022-08-05T20:41:46.671Z,101459.25
2022-08-05T20:44:30.343Z,101472.53
2022-08-05T20:47:01.713Z,101468.53
2022-08-05T20:49:33.273Z,101476.97
2022-08-05T20:52:08.577Z,101484.31
2022-08-05T20:54:55.361Z,101489.03
2022-08-05T20:57:43.941Z,101489.25
2022-08-05T21:00:41.086Z,101494.50
2022-08-05T21:03:07.345Z,101505.56
2022-08-05T21:05:53.680Z,101502.34
2022-08-05T21:08:26.534Z,101505.81
2022-08-05T21:11:09.942Z,101513.81
2022-08-05T21:13:48.413Z,101518.34
2022-08-05T21:16:29.486Z,101523.63
2022-08-05T21:19:00.171Z,101527.19
2022-08-05T21:21:39.487Z,101528.06
2022-08-05T21:24:13.532Z,101538.44
2022-08-05T21:26:58.115Z,101531.75
2022-08-05T21:29:31.529Z,101529.91
2022-08-05T21:32:01.775Z,101530.19
2022-08-05T21:34:31.629Z,101527.97
2022-08-05T21:37:01.020Z,101529.56
2022-08-05T21:39:30.216Z,101529.41
2022-08-05T21:42:03.957Z,101540.78
2022-08-05T21:44:32.172Z,101533.47
2022-08-05T21:47:01.216Z,101534.44
2022-08-05T21:49:59.450Z,101530.34
2022-08-05T21:52:26.964Z,101526.44
2022-08-05T21:54:56.477Z,101530.09
2022-08-05T21:57:31.218Z,101530.84
2022-08-05T22:00:06.316Z,101543.22
2022-08-05T22:02:35.147Z,101536.69
2022-08-05T22:05:04.371Z,101557.47
2022-08-05T22:07:40.329Z,101550.09
2022-08-05T22:10:26.658Z,101552.78
2022-08-05T22:12:58.782Z,101540.50
2022-08-05T22:16:00.411Z,101539.69
2022-08-05T22:18:15.834Z,101533.22
2022-08-05T22:20:47.701Z,101537.31
2022-08-05T22:24:02.453Z,101560.44
2022-08-05T22:26:42.669Z,101560.69
2022-08-05T22:29:26.632Z,101565.28
2022-08-05T22:31:59.558Z,101561.44
2022-08-05T22:34:31.211Z,101563.72
2022-08-05T22:36:59.757Z,101567.03
2022-08-05T22:39:33.242Z,101571.19
2022-08-05T22:42:09.947Z,101574.53
2022-08-05T22:44:42.576Z,101564.72
2022-08-05T22:47:29.580Z,101573.03
2022-08-05T22:50:19.838Z,101577.28
2022-08-05T22:52:48.678Z,101588.03
2022-08-05T22:55:18.897Z,101588.81
2022-08-05T22:57:49.935Z,101582.78
2022-08-05T23:00:21.483Z,101590.31
2022-08-05T23:02:50.750Z,101594.78
2022-08-05T23:05:21.897Z,101594.06
2022-08-05T23:07:50.928Z,101599.16
2022-08-05T23:10:20.618Z,101597.78
2022-08-05T23:12:51.701Z,101597.94
2022-08-05T23:15:26.864Z,101601.09
2022-08-05T23:18:00.944Z,101595.31
2022-08-05T23:20:37.327Z,101599.75
2022-08-05T23:23:09.425Z,101599.69
2022-08-05T23:25:53.203Z,101602.00
2022-08-05T23:28:28.626Z,101600.75
2022-08-05T23:31:06.980Z,101596.53
2022-08-05T23:34:04.360Z,101602.28
2022-08-05T23:36:40.216Z,101621.81
2022-08-05T23:39:17.480Z,101626.38
2022-08-05T23:42:00.721Z,101625.72
2022-08-05T23:44:31.294Z,101635.28
2022-08-05T23:47:02.318Z,101640.38
2022-08-05T23:49:43.262Z,101647.16
2022-08-05T23:52:30.790Z,101649.94
2022-08-05T23:55:05.238Z,101647.53
2022-08-05T23:57:35.165Z,101646.56
